sensor_id;sensor_type;location;lat;lon;timestamp;P1;durP1;ratioP1;P2;durP2;ratioP2
18146;SDS011;9199;48.832;9.182;2022-09-01T00:02:13;21.27;;;16.65;;
18146;SDS011;9199;48.832;9.182;2022-09-01T00:04:41;22.30;;;17.03;;
18146;SDS011;9199;48.832;9.182;2022-09-01T00:07:11;21.77;;;16.60;;
18146;SDS011;9199;48.832;9.182;2022-09-01T00:09:39;23.23;;;16.30;;
18146;SDS011;9199;48.832;9.182;2022-09-01T00:12:06;21.52;;;16.52;;
18146;SDS011;9199;48.832;9.182;2022-09-01T00:14:35;22.13;;;16.30;;
18146;SDS011;9199;48.832;9.182;2022-09-01T00:17:05;22.67;;;16.50;;
18146;SDS011;9199;48.832;9.182;2022-09-01T00:19:34;21.20;;;15.65;;
18146;SDS011;9199;48.832;9.182;2022-09-01T00:22:01;20.42;;;16.02;;
18146;SDS011;9199;48.832;9.182;2022-09-01T00:24:30;20.55;;;15.85;;
18146;SDS011;9199;48.832;9.182;2022-09-01T00:26:57;24.15;;;17.48;;
18146;SDS011;9199;48.832;9.182;2022-09-01T00:29:24;20.47;;;16.13;;
18146;SDS011;9199;48.832;9.182;2022-09-01T00:31:52;22.40;;;16.95;;
18146;SDS011;9199;48.832;9.182;2022-09-01T00:34:19;24.35;;;17.08;;
18146;SDS011;9199;48.832;9.182;2022-09-01T00:36:46;21.92;;;16.85;;
18146;SDS011;9199;48.832;9.182;2022-09-01T00:39:13;24.10;;;17.02;;
18146;SDS011;9199;48.832;9.182;2022-09-01T00:41:42;21.90;;;16.07;;
18146;SDS011;9199;48.832;9.182;2022-09-01T00:44:12;23.65;;;16.67;;
18146;SDS011;9199;48.832;9.182;2022-09-01T00:46:42;20.20;;;15.88;;
18146;SDS011;9199;48.832;9.182;2022-09-01T00:49:11;19.45;;;15.27;;
18146;SDS011;9199;48.832;9.182;2022-09-01T00:51:41;19.35;;;15.73;;
18146;SDS011;9199;48.832;9.182;2022-09-01T00:54:14;20.90;;;15.40;;
18146;SDS011;9199;48.832;9.182;2022-09-01T00:56:46;23.27;;;16.35;;
18146;SDS011;9199;48.832;9.182;2022-09-01T00:59:14;21.05;;;16.65;;
18146;SDS011;9199;48.832;9.182;2022-09-01T01:01:43;22.75;;;16.48;;
18146;SDS011;9199;48.832;9.182;2022-09-01T01:04:10;22.35;;;16.27;;
18146;SDS011;9199;48.832;9.182;2022-09-01T01:06:39;23.53;;;16.57;;
18146;SDS011;9199;48.832;9.182;2022-09-01T01:09:07;21.25;;;15.32;;
18146;SDS011;9199;48.832;9.182;2022-09-01T01:11:35;21.58;;;15.68;;
18146;SDS011;9199;48.832;9.182;2022-09-01T01:14:03;21.63;;;15.98;;
18146;SDS011;9199;48.832;9.182;2022-09-01T01:16:36;22.40;;;16.17;;
18146;SDS011;9199;48.832;9.182;2022-09-01T01:19:05;23.47;;;15.73;;
18146;SDS011;9199;48.832;9.182;2022-09-01T01:21:55;21.77;;;16.08;;
18146;SDS011;9199;48.832;9.182;2022-09-01T01:24:41;22.20;;;16.13;;
18146;SDS011;9199;48.832;9.182;2022-09-01T01:27:08;21.98;;;17.05;;
18146;SDS011;9199;48.832;9.182;2022-09-01T01:29:35;22.05;;;15.88;;
18146;SDS011;9199;48.832;9.182;2022-09-01T01:32:04;21.33;;;15.67;;
18146;SDS011;9199;48.832;9.182;2022-09-01T01:34:36;22.45;;;16.63;;
18146;SDS011;9199;48.832;9.182;2022-09-01T01:37:04;21.05;;;15.80;;
18146;SDS011;9199;48.832;9.182;2022-09-01T01:39:31;21.05;;;15.27;;
18146;SDS011;9199;48.832;9.182;2022-09-01T01:41:59;22.52;;;16.15;;
18146;SDS011;9199;48.832;9.182;2022-09-01T01:44:26;23.83;;;15.37;;
18146;SDS011;9199;48.832;9.182;2022-09-01T01:46:53;20.65;;;15.48;;
18146;SDS011;9199;48.832;9.182;2022-09-01T01:49:25;19.83;;;15.90;;
18146;SDS011;9199;48.832;9.182;2022-09-01T01:51:55;20.92;;;15.73;;
18146;SDS011;9199;48.832;9.182;2022-09-01T01:54:22;19.30;;;15.05;;
18146;SDS011;9199;48.832;9.182;2022-09-01T01:56:50;19.00;;;14.63;;
18146;SDS011;9199;48.832;9.182;2022-09-01T01:59:19;18.83;;;15.07;;
18146;SDS011;9199;48.832;9.182;2022-09-01T02:01:48;22.27;;;15.00;;
18146;SDS011;9199;48.832;9.182;2022-09-01T02:04:16;20.20;;;15.05;;
18146;SDS011;9199;48.832;9.182;2022-09-01T02:06:44;20.40;;;15.25;;
18146;SDS011;9199;48.832;9.182;2022-09-01T02:09:13;22.33;;;14.53;;
18146;SDS011;9199;48.832;9.182;2022-09-01T02:11:41;20.10;;;14.48;;
18146;SDS011;9199;48.832;9.182;2022-09-01T02:14:08;19.55;;;15.20;;
18146;SDS011;9199;48.832;9.182;2022-09-01T02:16:38;18.67;;;15.20;;
18146;SDS011;9199;48.832;9.182;2022-09-01T02:19:06;20.48;;;14.35;;
18146;SDS011;9199;48.832;9.182;2022-09-01T02:21:34;18.07;;;13.97;;
18146;SDS011;9199;48.832;9.182;2022-09-01T02:24:01;17.95;;;14.07;;
18146;SDS011;9199;48.832;9.182;2022-09-01T02:26:30;20.75;;;14.55;;
18146;SDS011;9199;48.832;9.182;2022-09-01T02:28:59;19.58;;;14.70;;
18146;SDS011;9199;48.832;9.182;2022-09-01T02:31:29;18.88;;;13.93;;
18146;SDS011;9199;48.832;9.182;2022-09-01T02:33:57;19.00;;;13.37;;
18146;SDS011;9199;48.832;9.182;2022-09-01T02:36:25;19.30;;;14.18;;
18146;SDS011;9199;48.832;9.182;2022-09-01T02:38:52;18.00;;;13.95;;
18146;SDS011;9199;48.832;9.182;2022-09-01T02:41:19;19.70;;;14.00;;
18146;SDS011;9199;48.832;9.182;2022-09-01T02:43:47;17.55;;;13.88;;
18146;SDS011;9199;48.832;9.182;2022-09-01T02:46:15;16.93;;;12.73;;
18146;SDS011;9199;48.832;9.182;2022-09-01T02:48:44;17.33;;;13.38;;
18146;SDS011;9199;48.832;9.182;2022-09-01T02:51:17;18.10;;;13.85;;
18146;SDS011;9199;48.832;9.182;2022-09-01T02:53:46;18.58;;;13.82;;
18146;SDS011;9199;48.832;9.182;2022-09-01T02:56:14;16.33;;;12.85;;
18146;SDS011;9199;48.832;9.182;2022-09-01T02:58:42;19.93;;;14.13;;
18146;SDS011;9199;48.832;9.182;2022-09-01T03:01:11;18.77;;;13.85;;
18146;SDS011;9199;48.832;9.182;2022-09-01T03:03:39;18.60;;;13.30;;
18146;SDS011;9199;48.832;9.182;2022-09-01T03:06:06;20.00;;;13.75;;
18146;SDS011;9199;48.832;9.182;2022-09-01T03:08:35;19.88;;;13.73;;
18146;SDS011;9199;48.832;9.182;2022-09-01T03:11:03;19.57;;;13.67;;
18146;SDS011;9199;48.832;9.182;2022-09-01T03:13:35;20.25;;;15.38;;
18146;SDS011;9199;48.832;9.182;2022-09-01T03:16:02;21.05;;;13.88;;
18146;SDS011;9199;48.832;9.182;2022-09-01T03:18:29;19.20;;;14.00;;
18146;SDS011;9199;48.832;9.182;2022-09-01T03:20:57;21.90;;;15.13;;
18146;SDS011;9199;48.832;9.182;2022-09-01T03:23:24;21.23;;;14.80;;
18146;SDS011;9199;48.832;9.182;2022-09-01T03:25:53;18.83;;;14.63;;
18146;SDS011;9199;48.832;9.182;2022-09-01T03:28:20;21.40;;;15.98;;
18146;SDS011;9199;48.832;9.182;2022-09-01T03:30:48;21.13;;;15.23;;
18146;SDS011;9199;48.832;9.182;2022-09-01T03:33:16;21.88;;;16.20;;
18146;SDS011;9199;48.832;9.182;2022-09-01T03:35:44;21.20;;;16.10;;
18146;SDS011;9199;48.832;9.182;2022-09-01T03:38:13;22.15;;;16.35;;
18146;SDS011;9199;48.832;9.182;2022-09-01T03:40:46;22.23;;;16.40;;
18146;SDS011;9199;48.832;9.182;2022-09-01T03:43:14;24.17;;;15.60;;
18146;SDS011;9199;48.832;9.182;2022-09-01T03:45:43;20.42;;;15.07;;
18146;SDS011;9199;48.832;9.182;2022-09-01T03:48:10;21.60;;;14.47;;
18146;SDS011;9199;48.832;9.182;2022-09-01T03:50:40;20.33;;;15.18;;
18146;SDS011;9199;48.832;9.182;2022-09-01T03:53:10;20.23;;;15.65;;
18146;SDS011;9199;48.832;9.182;2022-09-01T03:55:38;21.35;;;15.77;;
18146;SDS011;9199;48.832;9.182;2022-09-01T03:58:07;22.85;;;17.23;;
18146;SDS011;9199;48.832;9.182;2022-09-01T04:00:38;23.27;;;15.10;;
18146;SDS011;9199;48.832;9.182;2022-09-01T04:03:07;22.02;;;15.90;;
18146;SDS011;9199;48.832;9.182;2022-09-01T04:05:36;23.20;;;16.15;;
18146;SDS011;9199;48.832;9.182;2022-09-01T04:08:05;23.08;;;16.67;;
18146;SDS011;9199;48.832;9.182;2022-09-01T04:10:35;21.88;;;16.48;;
18146;SDS011;9199;48.832;9.182;2022-09-01T04:13:08;24.27;;;16.93;;
18146;SDS011;9199;48.832;9.182;2022-09-01T04:15:37;22.98;;;17.33;;
18146;SDS011;9199;48.832;9.182;2022-09-01T04:18:04;27.02;;;18.42;;
18146;SDS011;9199;48.832;9.182;2022-09-01T04:20:33;27.33;;;18.63;;
18146;SDS011;9199;48.832;9.182;2022-09-01T04:23:04;25.42;;;17.75;;
18146;SDS011;9199;48.832;9.182;2022-09-01T04:25:35;22.40;;;17.00;;
18146;SDS011;9199;48.832;9.182;2022-09-01T04:28:03;20.98;;;15.98;;
18146;SDS011;9199;48.832;9.182;2022-09-01T04:30:38;20.23;;;15.25;;
18146;SDS011;9199;48.832;9.182;2022-09-01T04:33:06;21.20;;;15.60;;
18146;SDS011;9199;48.832;9.182;2022-09-01T04:35:36;20.50;;;15.80;;
18146;SDS011;9199;48.832;9.182;2022-09-01T04:38:03;23.23;;;16.80;;
18146;SDS011;9199;48.832;9.182;2022-09-01T04:40:32;21.52;;;15.95;;
18146;SDS011;9199;48.832;9.182;2022-09-01T04:43:03;25.30;;;17.08;;
18146;SDS011;9199;48.832;9.182;2022-09-01T04:45:30;26.35;;;17.05;;
18146;SDS011;9199;48.832;9.182;2022-09-01T04:48:00;24.00;;;17.75;;
18146;SDS011;9199;48.832;9.182;2022-09-01T04:50:27;24.30;;;17.37;;
18146;SDS011;9199;48.832;9.182;2022-09-01T04:52:56;23.25;;;17.52;;
18146;SDS011;9199;48.832;9.182;2022-09-01T04:55:25;24.10;;;17.55;;
18146;SDS011;9199;48.832;9.182;2022-09-01T04:57:54;25.38;;;18.10;;
18146;SDS011;9199;48.832;9.182;2022-09-01T05:00:23;25.35;;;17.63;;
18146;SDS011;9199;48.832;9.182;2022-09-01T05:02:56;30.77;;;18.90;;
18146;SDS011;9199;48.832;9.182;2022-09-01T05:05:34;27.10;;;18.70;;
18146;SDS011;9199;48.832;9.182;2022-09-01T05:08:03;23.73;;;16.92;;
18146;SDS011;9199;48.832;9.182;2022-09-01T05:10:30;20.83;;;16.10;;
18146;SDS011;9199;48.832;9.182;2022-09-01T05:13:00;19.17;;;14.48;;
18146;SDS011;9199;48.832;9.182;2022-09-01T05:15:33;19.83;;;15.20;;
18146;SDS011;9199;48.832;9.182;2022-09-01T05:18:01;19.85;;;14.50;;
18146;SDS011;9199;48.832;9.182;2022-09-01T05:20:36;19.90;;;15.25;;
18146;SDS011;9199;48.832;9.182;2022-09-01T05:23:06;22.05;;;15.00;;
18146;SDS011;9199;48.832;9.182;2022-09-01T05:25:37;20.98;;;14.93;;
18146;SDS011;9199;48.832;9.182;2022-09-01T05:28:06;18.83;;;14.47;;
18146;SDS011;9199;48.832;9.182;2022-09-01T05:30:34;20.13;;;15.10;;
18146;SDS011;9199;48.832;9.182;2022-09-01T05:33:02;20.48;;;15.15;;
18146;SDS011;9199;48.832;9.182;2022-09-01T05:35:34;20.77;;;15.18;;
18146;SDS011;9199;48.832;9.182;2022-09-01T05:38:03;21.75;;;15.63;;
18146;SDS011;9199;48.832;9.182;2022-09-01T05:40:32;19.40;;;15.07;;
18146;SDS011;9199;48.832;9.182;2022-09-01T05:43:05;18.55;;;14.00;;
18146;SDS011;9199;48.832;9.182;2022-09-01T05:45:35;18.65;;;14.43;;
18146;SDS011;9199;48.832;9.182;2022-09-01T05:48:03;21.45;;;14.73;;
18146;SDS011;9199;48.832;9.182;2022-09-01T05:50:30;19.50;;;14.52;;
18146;SDS011;9199;48.832;9.182;2022-09-01T05:52:56;20.80;;;14.90;;
18146;SDS011;9199;48.832;9.182;2022-09-01T05:55:24;19.02;;;14.48;;
18146;SDS011;9199;48.832;9.182;2022-09-01T05:57:52;19.92;;;14.18;;
18146;SDS011;9199;48.832;9.182;2022-09-01T06:00:19;17.83;;;13.55;;
18146;SDS011;9199;48.832;9.182;2022-09-01T06:02:46;17.85;;;14.10;;
18146;SDS011;9199;48.832;9.182;2022-09-01T06:05:13;18.97;;;13.30;;
18146;SDS011;9199;48.832;9.182;2022-09-01T06:07:40;18.02;;;13.70;;
18146;SDS011;9199;48.832;9.182;2022-09-01T06:10:08;18.13;;;13.85;;
18146;SDS011;9199;48.832;9.182;2022-09-01T06:12:38;16.88;;;12.43;;
18146;SDS011;9199;48.832;9.182;2022-09-01T06:15:05;17.30;;;12.63;;
18146;SDS011;9199;48.832;9.182;2022-09-01T06:17:39;21.07;;;13.83;;
18146;SDS011;9199;48.832;9.182;2022-09-01T06:20:08;17.05;;;13.25;;
18146;SDS011;9199;48.832;9.182;2022-09-01T06:22:35;19.30;;;13.60;;
18146;SDS011;9199;48.832;9.182;2022-09-01T06:25:03;16.02;;;13.07;;
18146;SDS011;9199;48.832;9.182;2022-09-01T06:27:32;16.92;;;12.40;;
18146;SDS011;9199;48.832;9.182;2022-09-01T06:30:04;17.03;;;12.77;;
18146;SDS011;9199;48.832;9.182;2022-09-01T06:32:38;19.00;;;12.07;;
18146;SDS011;9199;48.832;9.182;2022-09-01T06:35:08;17.63;;;12.35;;
18146;SDS011;9199;48.832;9.182;2022-09-01T06:37:35;17.20;;;12.80;;
18146;SDS011;9199;48.832;9.182;2022-09-01T06:40:03;15.63;;;12.60;;
18146;SDS011;9199;48.832;9.182;2022-09-01T06:42:34;16.20;;;12.47;;
18146;SDS011;9199;48.832;9.182;2022-09-01T06:45:02;20.85;;;13.10;;
18146;SDS011;9199;48.832;9.182;2022-09-01T06:47:34;19.08;;;13.10;;
18146;SDS011;9199;48.832;9.182;2022-09-01T06:50:01;16.80;;;12.10;;
18146;SDS011;9199;48.832;9.182;2022-09-01T06:52:28;19.20;;;13.23;;
18146;SDS011;9199;48.832;9.182;2022-09-01T06:54:55;16.60;;;12.93;;
18146;SDS011;9199;48.832;9.182;2022-09-01T06:57:22;17.40;;;12.70;;
18146;SDS011;9199;48.832;9.182;2022-09-01T06:59:50;18.20;;;12.85;;
18146;SDS011;9199;48.832;9.182;2022-09-01T07:02:19;16.88;;;12.57;;
18146;SDS011;9199;48.832;9.182;2022-09-01T07:04:46;15.90;;;12.77;;
18146;SDS011;9199;48.832;9.182;2022-09-01T07:07:13;17.73;;;12.53;;
18146;SDS011;9199;48.832;9.182;2022-09-01T07:09:39;16.60;;;12.25;;
18146;SDS011;9199;48.832;9.182;2022-09-01T07:12:07;16.75;;;12.60;;
18146;SDS011;9199;48.832;9.182;2022-09-01T07:14:34;16.70;;;12.05;;
18146;SDS011;9199;48.832;9.182;2022-09-01T07:17:01;16.20;;;11.25;;
18146;SDS011;9199;48.832;9.182;2022-09-01T07:19:29;15.47;;;11.70;;
18146;SDS011;9199;48.832;9.182;2022-09-01T07:21:57;16.63;;;11.65;;
18146;SDS011;9199;48.832;9.182;2022-09-01T07:24:23;23.77;;;12.43;;
18146;SDS011;9199;48.832;9.182;2022-09-01T07:26:50;15.02;;;10.98;;
18146;SDS011;9199;48.832;9.182;2022-09-01T07:29:17;20.15;;;12.73;;
18146;SDS011;9199;48.832;9.182;2022-09-01T07:31:46;20.10;;;12.80;;
18146;SDS011;9199;48.832;9.182;2022-09-01T07:34:14;15.75;;;10.70;;
18146;SDS011;9199;48.832;9.182;2022-09-01T07:36:42;14.75;;;11.43;;
18146;SDS011;9199;48.832;9.182;2022-09-01T07:39:10;16.58;;;10.40;;
18146;SDS011;9199;48.832;9.182;2022-09-01T07:41:39;15.63;;;10.85;;
18146;SDS011;9199;48.832;9.182;2022-09-01T07:44:06;13.83;;;9.70;;
18146;SDS011;9199;48.832;9.182;2022-09-01T07:46:38;13.77;;;9.68;;
18146;SDS011;9199;48.832;9.182;2022-09-01T07:49:05;13.13;;;9.05;;
18146;SDS011;9199;48.832;9.182;2022-09-01T07:51:32;12.68;;;8.85;;
18146;SDS011;9199;48.832;9.182;2022-09-01T07:54:01;12.98;;;8.32;;
18146;SDS011;9199;48.832;9.182;2022-09-01T07:56:28;12.27;;;8.70;;
18146;SDS011;9199;48.832;9.182;2022-09-01T07:58:55;12.95;;;9.07;;
18146;SDS011;9199;48.832;9.182;2022-09-01T08:01:24;11.70;;;8.57;;
18146;SDS011;9199;48.832;9.182;2022-09-01T08:03:53;12.10;;;8.70;;
18146;SDS011;9199;48.832;9.182;2022-09-01T08:06:22;10.00;;;7.50;;
18146;SDS011;9199;48.832;9.182;2022-09-01T08:08:50;9.43;;;7.13;;
18146;SDS011;9199;48.832;9.182;2022-09-01T08:11:20;11.43;;;7.97;;
18146;SDS011;9199;48.832;9.182;2022-09-01T08:13:49;11.60;;;7.55;;
18146;SDS011;9199;48.832;9.182;2022-09-01T08:16:17;11.52;;;7.80;;
18146;SDS011;9199;48.832;9.182;2022-09-01T08:18:45;10.48;;;7.32;;
18146;SDS011;9199;48.832;9.182;2022-09-01T08:21:13;11.37;;;7.97;;
18146;SDS011;9199;48.832;9.182;2022-09-01T08:23:41;12.77;;;7.93;;
18146;SDS011;9199;48.832;9.182;2022-09-01T08:26:09;11.88;;;8.00;;
18146;SDS011;9199;48.832;9.182;2022-09-01T08:28:39;8.88;;;6.75;;
18146;SDS011;9199;48.832;9.182;2022-09-01T08:31:07;8.15;;;6.20;;
18146;SDS011;9199;48.832;9.182;2022-09-01T08:33:35;9.03;;;6.30;;
18146;SDS011;9199;48.832;9.182;2022-09-01T08:36:02;9.75;;;6.15;;
18146;SDS011;9199;48.832;9.182;2022-09-01T08:38:29;9.75;;;6.55;;
18146;SDS011;9199;48.832;9.182;2022-09-01T08:40:56;13.07;;;6.70;;
18146;SDS011;9199;48.832;9.182;2022-09-01T08:43:26;9.35;;;5.90;;
18146;SDS011;9199;48.832;9.182;2022-09-01T08:46:06;8.77;;;6.50;;
18146;SDS011;9199;48.832;9.182;2022-09-01T08:48:37;8.45;;;6.07;;
18146;SDS011;9199;48.832;9.182;2022-09-01T08:51:07;10.73;;;5.88;;
18146;SDS011;9199;48.832;9.182;2022-09-01T08:53:41;7.40;;;5.25;;
18146;SDS011;9199;48.832;9.182;2022-09-01T08:56:11;9.25;;;5.22;;
18146;SDS011;9199;48.832;9.182;2022-09-01T08:58:39;9.23;;;5.60;;
18146;SDS011;9199;48.832;9.182;2022-09-01T09:01:09;8.40;;;5.78;;
18146;SDS011;9199;48.832;9.182;2022-09-01T09:03:47;8.20;;;5.75;;
18146;SDS011;9199;48.832;9.182;2022-09-01T09:06:24;6.88;;;4.72;;
18146;SDS011;9199;48.832;9.182;2022-09-01T09:09:03;6.07;;;4.20;;
18146;SDS011;9199;48.832;9.182;2022-09-01T09:11:42;5.87;;;3.87;;
18146;SDS011;9199;48.832;9.182;2022-09-01T09:14:24;5.55;;;3.58;;
18146;SDS011;9199;48.832;9.182;2022-09-01T09:17:02;6.32;;;3.60;;
18146;SDS011;9199;48.832;9.182;2022-09-01T09:19:30;5.72;;;3.47;;
18146;SDS011;9199;48.832;9.182;2022-09-01T09:22:00;6.63;;;4.25;;
18146;SDS011;9199;48.832;9.182;2022-09-01T09:24:30;6.43;;;3.97;;
18146;SDS011;9199;48.832;9.182;2022-09-01T09:27:15;7.13;;;4.35;;
18146;SDS011;9199;48.832;9.182;2022-09-01T09:29:44;7.03;;;4.65;;
18146;SDS011;9199;48.832;9.182;2022-09-01T09:32:13;7.05;;;4.53;;
18146;SDS011;9199;48.832;9.182;2022-09-01T09:34:41;6.47;;;4.70;;
18146;SDS011;9199;48.832;9.182;2022-09-01T09:37:19;7.30;;;4.40;;
18146;SDS011;9199;48.832;9.182;2022-09-01T09:40:01;6.38;;;4.65;;
18146;SDS011;9199;48.832;9.182;2022-09-01T09:42:31;7.00;;;4.72;;
18146;SDS011;9199;48.832;9.182;2022-09-01T09:44:58;6.30;;;4.53;;
18146;SDS011;9199;48.832;9.182;2022-09-01T09:47:37;7.43;;;4.90;;
18146;SDS011;9199;48.832;9.182;2022-09-01T09:50:17;6.03;;;4.40;;
18146;SDS011;9199;48.832;9.182;2022-09-01T09:52:46;7.05;;;4.80;;
18146;SDS011;9199;48.832;9.182;2022-09-01T09:55:20;6.90;;;4.75;;
18146;SDS011;9199;48.832;9.182;2022-09-01T09:57:52;6.35;;;3.95;;
18146;SDS011;9199;48.832;9.182;2022-09-01T10:00:23;10.52;;;4.95;;
18146;SDS011;9199;48.832;9.182;2022-09-01T10:02:54;7.83;;;4.03;;
18146;SDS011;9199;48.832;9.182;2022-09-01T10:05:25;6.32;;;4.53;;
18146;SDS011;9199;48.832;9.182;2022-09-01T10:07:57;6.82;;;4.68;;
18146;SDS011;9199;48.832;9.182;2022-09-01T10:10:25;6.70;;;4.30;;
18146;SDS011;9199;48.832;9.182;2022-09-01T10:12:54;7.65;;;4.45;;
18146;SDS011;9199;48.832;9.182;2022-09-01T10:15:24;6.80;;;4.07;;
18146;SDS011;9199;48.832;9.182;2022-09-01T10:17:54;6.20;;;4.28;;
18146;SDS011;9199;48.832;9.182;2022-09-01T10:20:27;5.75;;;4.25;;
18146;SDS011;9199;48.832;9.182;2022-09-01T10:22:54;6.60;;;4.28;;
18146;SDS011;9199;48.832;9.182;2022-09-01T10:25:22;6.13;;;4.47;;
18146;SDS011;9199;48.832;9.182;2022-09-01T10:27:54;6.37;;;4.27;;
18146;SDS011;9199;48.832;9.182;2022-09-01T10:30:23;5.97;;;3.75;;
18146;SDS011;9199;48.832;9.182;2022-09-01T10:32:52;5.90;;;3.80;;
18146;SDS011;9199;48.832;9.182;2022-09-01T10:35:23;6.40;;;3.80;;
18146;SDS011;9199;48.832;9.182;2022-09-01T10:37:52;5.82;;;4.10;;
18146;SDS011;9199;48.832;9.182;2022-09-01T10:40:33;6.83;;;4.10;;
18146;SDS011;9199;48.832;9.182;2022-09-01T10:43:23;5.72;;;3.80;;
18146;SDS011;9199;48.832;9.182;2022-09-01T10:46:09;5.85;;;3.50;;
18146;SDS011;9199;48.832;9.182;2022-09-01T10:49:17;5.30;;;3.13;;
18146;SDS011;9199;48.832;9.182;2022-09-01T10:51:46;5.25;;;3.38;;
18146;SDS011;9199;48.832;9.182;2022-09-01T11:00:28;5.95;;;3.58;;
18146;SDS011;9199;48.832;9.182;2022-09-01T11:03:32;5.32;;;3.15;;
18146;SDS011;9199;48.832;9.182;2022-09-01T11:09:18;5.57;;;3.20;;
18146;SDS011;9199;48.832;9.182;2022-09-01T11:11:49;5.75;;;3.50;;
18146;SDS011;9199;48.832;9.182;2022-09-01T11:14:46;5.05;;;3.30;;
18146;SDS011;9199;48.832;9.182;2022-09-01T11:17:16;5.38;;;3.08;;
18146;SDS011;9199;48.832;9.182;2022-09-01T11:19:46;4.80;;;3.50;;
18146;SDS011;9199;48.832;9.182;2022-09-01T11:25:13;4.68;;;3.10;;
18146;SDS011;9199;48.832;9.182;2022-09-01T11:30:59;4.88;;;2.72;;
18146;SDS011;9199;48.832;9.182;2022-09-01T11:33:41;4.25;;;2.42;;
18146;SDS011;9199;48.832;9.182;2022-09-01T11:36:17;4.20;;;2.50;;
18146;SDS011;9199;48.832;9.182;2022-09-01T11:38:51;4.97;;;2.80;;
18146;SDS011;9199;48.832;9.182;2022-09-01T11:41:22;4.95;;;2.85;;
18146;SDS011;9199;48.832;9.182;2022-09-01T11:43:54;4.30;;;2.60;;
18146;SDS011;9199;48.832;9.182;2022-09-01T11:46:24;4.20;;;2.70;;
18146;SDS011;9199;48.832;9.182;2022-09-01T11:48:53;4.20;;;2.33;;
18146;SDS011;9199;48.832;9.182;2022-09-01T11:51:22;4.68;;;2.70;;
18146;SDS011;9199;48.832;9.182;2022-09-01T11:53:49;5.85;;;2.85;;
18146;SDS011;9199;48.832;9.182;2022-09-01T11:56:25;3.90;;;2.50;;
18146;SDS011;9199;48.832;9.182;2022-09-01T11:58:53;4.80;;;2.63;;
18146;SDS011;9199;48.832;9.182;2022-09-01T12:01:21;3.97;;;2.53;;
18146;SDS011;9199;48.832;9.182;2022-09-01T12:03:55;5.15;;;2.70;;
18146;SDS011;9199;48.832;9.182;2022-09-01T12:06:23;5.00;;;2.90;;
18146;SDS011;9199;48.832;9.182;2022-09-01T12:08:54;3.83;;;2.83;;
18146;SDS011;9199;48.832;9.182;2022-09-01T12:11:25;4.80;;;3.10;;
18146;SDS011;9199;48.832;9.182;2022-09-01T12:13:57;4.47;;;2.77;;
18146;SDS011;9199;48.832;9.182;2022-09-01T12:16:25;6.00;;;2.90;;
18146;SDS011;9199;48.832;9.182;2022-09-01T12:18:54;5.15;;;2.63;;
18146;SDS011;9199;48.832;9.182;2022-09-01T12:21:24;4.15;;;2.50;;
18146;SDS011;9199;48.832;9.182;2022-09-01T12:23:53;4.78;;;2.65;;
18146;SDS011;9199;48.832;9.182;2022-09-01T12:26:35;3.90;;;2.60;;
18146;SDS011;9199;48.832;9.182;2022-09-01T12:29:04;3.70;;;2.70;;
18146;SDS011;9199;48.832;9.182;2022-09-01T12:31:32;4.13;;;2.78;;
18146;SDS011;9199;48.832;9.182;2022-09-01T12:33:59;5.53;;;2.72;;
18146;SDS011;9199;48.832;9.182;2022-09-01T12:36:29;4.53;;;2.53;;
18146;SDS011;9199;48.832;9.182;2022-09-01T12:42:01;3.60;;;2.58;;
18146;SDS011;9199;48.832;9.182;2022-09-01T12:44:32;4.25;;;2.45;;
18146;SDS011;9199;48.832;9.182;2022-09-01T12:47:01;4.03;;;2.50;;
18146;SDS011;9199;48.832;9.182;2022-09-01T12:49:34;4.03;;;2.60;;
18146;SDS011;9199;48.832;9.182;2022-09-01T12:52:11;3.53;;;2.50;;
18146;SDS011;9199;48.832;9.182;2022-09-01T12:54:46;4.35;;;2.80;;
18146;SDS011;9199;48.832;9.182;2022-09-01T12:57:22;5.40;;;2.90;;
18146;SDS011;9199;48.832;9.182;2022-09-01T13:00:04;4.00;;;2.47;;
18146;SDS011;9199;48.832;9.182;2022-09-01T13:02:40;14.18;;;2.78;;
